createdAt,value
2019-06-20T00:00:33.795Z,8.40
2019-06-20T00:01:33.636Z,7.60
2019-06-20T00:02:33.652Z,5.20
2019-06-20T00:03:33.627Z,6.70
2019-06-20T00:04:33.641Z,6.80
2019-06-20T00:05:34.467Z,7.60
2019-06-20T00:06:33.577Z,6.50
2019-06-20T00:07:33.561Z,6.90
2019-06-20T00:08:33.545Z,6.80
2019-06-20T00:09:33.640Z,6.50
2019-06-20T00:10:33.515Z,6.20
2019-06-20T00:11:33.522Z,7.20
2019-06-20T00:12:33.525Z,5.30
2019-06-20T00:13:33.708Z,7.10
2019-06-20T00:14:33.463Z,10.00
2019-06-20T00:15:33.575Z,5.70
2019-06-20T00:16:33.476Z,6.60
2019-06-20T00:17:33.461Z,6.60
2019-06-20T00:18:33.418Z,6.10
2019-06-20T00:19:33.492Z,7.90
2019-06-20T00:20:33.453Z,5.50
2019-06-20T00:21:33.403Z,5.40
2019-06-20T00:22:33.446Z,5.30
2019-06-20T00:23:33.392Z,5.40
2019-06-20T00:24:33.428Z,6.50
2019-06-20T00:25:33.368Z,5.10
2019-06-20T00:26:33.338Z,9.20
2019-06-20T00:27:33.352Z,7.60
2019-06-20T00:28:33.325Z,6.20
2019-06-20T00:29:33.468Z,5.10
2019-06-20T00:30:33.308Z,6.10
2019-06-20T00:31:33.280Z,5.10
2019-06-20T00:32:33.411Z,5.10
2019-06-20T00:33:33.291Z,4.60
2019-06-20T00:34:34.016Z,5.70
2019-06-20T00:35:33.226Z,6.10
2019-06-20T00:36:33.285Z,5.30
2019-06-20T00:37:33.260Z,6.00
2019-06-20T00:38:33.230Z,6.20
2019-06-20T00:39:33.225Z,4.90
2019-06-20T00:40:33.184Z,5.10
2019-06-20T00:41:33.158Z,6.80
2019-06-20T00:42:33.388Z,6.60
2019-06-20T00:43:33.263Z,6.00
2019-06-20T00:44:33.175Z,6.10
2019-06-20T00:45:33.265Z,4.90
2019-06-20T00:46:33.174Z,4.70
2019-06-20T00:47:33.097Z,4.70
2019-06-20T00:48:33.226Z,4.30
2019-06-20T00:49:33.103Z,4.60
2019-06-20T00:50:33.071Z,5.00
2019-06-20T00:51:33.079Z,4.60
2019-06-20T00:52:33.060Z,4.70
2019-06-20T00:53:33.173Z,5.80
2019-06-20T00:54:33.102Z,4.60
2019-06-20T00:55:33.044Z,4.90
2019-06-20T00:56:33.085Z,6.00
2019-06-20T00:57:33.052Z,4.10
2019-06-20T00:58:33.177Z,4.80
2019-06-20T00:59:33.028Z,4.20
2019-06-20T01:00:33.003Z,4.80
2019-06-20T01:01:32.958Z,5.90
2019-06-20T01:02:32.970Z,5.40
2019-06-20T01:03:32.938Z,4.30
2019-06-20T01:04:32.927Z,4.80
2019-06-20T01:05:32.901Z,4.00
2019-06-20T01:06:33.158Z,4.60
2019-06-20T01:07:32.914Z,3.60
2019-06-20T01:08:32.927Z,4.20
2019-06-20T01:09:32.974Z,3.40
2019-06-20T01:10:32.865Z,4.90
2019-06-20T01:11:32.855Z,5.40
2019-06-20T01:12:33.021Z,4.20
2019-06-20T01:13:34.303Z,4.70
2019-06-20T01:14:32.833Z,5.30
2019-06-20T01:15:32.854Z,4.70
2019-06-20T01:16:32.913Z,7.30
2019-06-20T01:17:32.772Z,5.00
2019-06-20T01:18:32.804Z,4.10
2019-06-20T01:19:32.775Z,4.70
2019-06-20T01:20:32.756Z,6.50
2019-06-20T01:21:32.763Z,4.40
2019-06-20T01:22:32.824Z,5.20
2019-06-20T01:23:32.731Z,4.50
2019-06-20T01:24:32.694Z,5.40
2019-06-20T01:25:32.701Z,5.30
2019-06-20T01:26:32.706Z,8.10
2019-06-20T01:27:32.697Z,6.10
2019-06-20T01:28:32.839Z,5.30
2019-06-20T01:29:32.769Z,6.10
2019-06-20T01:30:32.632Z,5.40
2019-06-20T01:31:32.622Z,6.30
2019-06-20T01:32:32.606Z,7.60
2019-06-20T01:33:32.669Z,5.80
2019-06-20T01:34:32.584Z,6.70
2019-06-20T01:35:32.640Z,5.60
2019-06-20T01:36:32.741Z,5.90
2019-06-20T01:37:32.577Z,5.70
2019-06-20T01:38:32.575Z,5.40
2019-06-20T01:39:32.680Z,6.10
2019-06-20T01:40:32.582Z,6.00
2019-06-20T01:41:32.520Z,5.30
2019-06-20T01:42:32.571Z,5.90
2019-06-20T01:43:32.501Z,8.70
2019-06-20T01:44:32.475Z,7.40
2019-06-20T01:45:32.471Z,6.80
2019-06-20T01:46:32.511Z,6.70
2019-06-20T01:47:32.432Z,7.00
2019-06-20T01:48:32.439Z,7.10
2019-06-20T01:49:32.435Z,11.20
2019-06-20T01:50:32.415Z,7.70
2019-06-20T01:51:32.404Z,7.30
2019-06-20T01:52:32.563Z,7.90
2019-06-20T01:53:32.394Z,7.20
2019-06-20T01:54:32.374Z,8.70
2019-06-20T01:55:32.415Z,7.40
2019-06-20T01:56:32.360Z,9.80
2019-06-20T01:57:32.431Z,9.10
2019-06-20T01:58:32.343Z,10.10
2019-06-20T01:59:32.312Z,11.80
2019-06-20T02:00:32.354Z,9.60
2019-06-20T02:01:32.318Z,10.00
2019-06-20T02:02:32.280Z,10.70
2019-06-20T02:03:32.350Z,9.20
2019-06-20T02:04:32.272Z,9.30
2019-06-20T02:05:32.259Z,10.90
2019-06-20T02:06:32.232Z,12.00
2019-06-20T02:07:32.282Z,10.80
2019-06-20T02:08:32.253Z,12.30
2019-06-20T02:09:32.303Z,11.10
2019-06-20T02:10:32.186Z,14.10
2019-06-20T02:11:32.315Z,12.40
2019-06-20T02:12:32.181Z,12.70
2019-06-20T02:13:32.157Z,14.60
2019-06-20T02:14:32.148Z,12.60
2019-06-20T02:15:32.193Z,15.80
2019-06-20T02:16:32.137Z,15.50
2019-06-20T02:17:32.125Z,13.70
2019-06-20T02:18:33.024Z,16.50
2019-06-20T02:19:32.108Z,16.20
2019-06-20T02:20:32.165Z,16.30
2019-06-20T02:21:32.152Z,17.20
2019-06-20T02:22:32.065Z,16.40
2019-06-20T02:23:32.087Z,19.10
2019-06-20T02:24:32.098Z,20.60
2019-06-20T02:25:32.014Z,16.50
2019-06-20T02:26:32.031Z,16.10
2019-06-20T02:27:31.987Z,17.80
2019-06-20T02:28:31.988Z,15.50
2019-06-20T02:29:32.041Z,16.70
2019-06-20T02:30:31.960Z,16.00
2019-06-20T02:31:31.999Z,15.70
2019-06-20T02:32:32.148Z,15.90
2019-06-20T02:33:32.019Z,16.40
2019-06-20T02:34:31.920Z,16.40
2019-06-20T02:35:32.036Z,18.00
2019-06-20T02:36:31.930Z,17.30
2019-06-20T02:37:32.001Z,16.90
2019-06-20T02:38:31.923Z,16.60
2019-06-20T02:39:31.892Z,20.10
2019-06-20T02:40:31.849Z,18.10
2019-06-20T02:41:31.907Z,18.80
2019-06-20T02:42:31.838Z,18.90
2019-06-20T02:43:31.892Z,17.70
2019-06-20T02:44:31.832Z,18.50
2019-06-20T02:45:31.956Z,20.60
2019-06-20T02:46:31.816Z,19.70
2019-06-20T02:47:32.499Z,22.10
2019-06-20T02:48:31.906Z,21.00
2019-06-20T02:49:31.807Z,21.40
2019-06-20T02:50:31.778Z,22.00
2019-06-20T02:51:31.794Z,22.00
2019-06-20T02:52:31.735Z,20.40
2019-06-20T02:53:31.709Z,20.40
2019-06-20T02:54:31.708Z,22.30
2019-06-20T02:55:31.742Z,21.00
2019-06-20T02:56:31.689Z,20.70
2019-06-20T02:57:31.685Z,19.60
2019-06-20T02:58:31.676Z,20.80
2019-06-20T02:59:31.647Z,19.40
2019-06-20T03:00:31.697Z,21.60
2019-06-20T03:01:31.763Z,18.70
2019-06-20T03:02:31.615Z,20.00
2019-06-20T03:03:31.602Z,19.80
2019-06-20T03:04:31.621Z,21.50
2019-06-20T03:05:31.584Z,24.20
2019-06-20T03:06:31.617Z,21.80
2019-06-20T03:07:31.618Z,21.30
2019-06-20T03:08:31.554Z,21.90
2019-06-20T03:09:31.540Z,21.30
2019-06-20T03:10:31.539Z,21.40
2019-06-20T03:11:31.571Z,21.90
2019-06-20T03:12:31.508Z,22.50
2019-06-20T03:13:31.485Z,23.90
2019-06-20T03:14:44.576Z,20.30
2019-06-20T03:15:32.485Z,21.00
2019-06-20T03:16:31.469Z,22.10
2019-06-20T03:17:31.489Z,21.30
2019-06-20T03:18:31.489Z,20.90
2019-06-20T03:19:31.441Z,22.00
2019-06-20T03:20:31.439Z,20.20
2019-06-20T03:21:31.411Z,20.00
2019-06-20T03:22:31.399Z,20.50
2019-06-20T03:23:31.415Z,22.40
2019-06-20T03:24:31.429Z,21.90
2019-06-20T03:25:31.369Z,22.30
2019-06-20T03:26:31.350Z,22.40
2019-06-20T03:27:31.355Z,22.00
2019-06-20T03:28:31.492Z,20.00
2019-06-20T03:29:31.337Z,20.10
2019-06-20T03:30:31.356Z,19.70
2019-06-20T03:31:31.420Z,20.90
2019-06-20T03:32:31.297Z,19.70
2019-06-20T03:33:31.267Z,20.50
2019-06-20T03:34:31.276Z,20.00
2019-06-20T03:35:31.282Z,19.90
2019-06-20T03:36:31.289Z,22.30
2019-06-20T03:37:31.231Z,23.30
2019-06-20T03:38:31.223Z,20.30
2019-06-20T03:39:31.209Z,20.40
2019-06-20T03:40:31.276Z,20.60
2019-06-20T03:41:31.280Z,22.60
2019-06-20T03:42:31.182Z,21.50
2019-06-20T03:43:31.172Z,19.00
2019-06-20T03:44:31.177Z,20.40
2019-06-20T03:45:31.140Z,21.40
2019-06-20T03:46:31.133Z,20.90
2019-06-20T03:47:31.340Z,20.90
2019-06-20T03:48:31.118Z,19.70
2019-06-20T03:49:31.102Z,20.50
2019-06-20T03:50:31.108Z,25.90
2019-06-20T03:51:31.078Z,39.30
2019-06-20T03:52:31.081Z,30.00
2019-06-20T03:53:31.087Z,34.80
2019-06-20T03:54:31.035Z,33.70
2019-06-20T03:55:31.222Z,23.40
2019-06-20T03:56:31.017Z,22.60
2019-06-20T03:57:31.038Z,23.30
2019-06-20T03:58:31.163Z,22.80
2019-06-20T03:59:31.080Z,72.60
2019-06-20T04:00:31.023Z,55.10
2019-06-20T04:01:31.091Z,49.10
2019-06-20T04:02:30.943Z,29.40
2019-06-20T04:03:30.972Z,24.00
2019-06-20T04:04:30.981Z,22.80
2019-06-20T04:05:30.920Z,22.30
2019-06-20T04:06:30.904Z,25.30
2019-06-20T04:07:30.880Z,23.80
2019-06-20T04:08:30.890Z,22.00
2019-06-20T04:09:30.890Z,22.90
2019-06-20T04:10:30.902Z,25.30
2019-06-20T04:11:30.832Z,24.30
2019-06-20T04:12:30.880Z,23.00
2019-06-20T04:13:30.877Z,25.30
2019-06-20T04:14:31.529Z,25.00
2019-06-20T04:15:30.797Z,25.80
2019-06-20T04:16:30.898Z,25.90
2019-06-20T04:17:30.995Z,28.40
2019-06-20T04:18:30.819Z,27.30
2019-06-20T04:19:31.525Z,29.10
2019-06-20T04:20:30.765Z,29.10
2019-06-20T04:21:30.790Z,28.50
2019-06-20T04:22:30.735Z,30.80
2019-06-20T04:23:30.812Z,32.10
2019-06-20T04:24:30.705Z,32.10
2019-06-20T04:25:30.721Z,31.60
2019-06-20T04:26:30.700Z,30.20
2019-06-20T04:27:30.778Z,32.80
2019-06-20T04:28:30.711Z,33.40
2019-06-20T04:29:30.710Z,33.10
2019-06-20T04:30:30.656Z,35.80
2019-06-20T04:31:30.639Z,34.20
2019-06-20T04:32:30.688Z,33.80
2019-06-20T04:33:30.790Z,32.70
2019-06-20T04:34:30.604Z,28.10
2019-06-20T04:35:30.589Z,31.90
2019-06-20T04:36:30.591Z,30.60
2019-06-20T04:37:30.627Z,27.90
2019-06-20T04:38:30.624Z,29.10
2019-06-20T04:39:30.582Z,29.40
2019-06-20T04:40:30.568Z,29.40
2019-06-20T04:41:30.659Z,29.00
2019-06-20T04:42:30.544Z,31.20
2019-06-20T04:43:30.491Z,27.70
2019-06-20T04:44:30.590Z,27.40
2019-06-20T04:45:35.179Z,31.40
2019-06-20T04:46:31.474Z,28.80
2019-06-20T04:47:30.466Z,62.10
2019-06-20T04:48:30.527Z,100.50
2019-06-20T04:49:31.046Z,114.80
2019-06-20T04:50:31.038Z,52.30
2019-06-20T04:51:30.425Z,37.90
2019-06-20T04:52:30.418Z,31.40
2019-06-20T04:53:30.398Z,30.00
2019-06-20T04:54:30.385Z,28.70
2019-06-20T04:55:30.370Z,30.50
2019-06-20T04:56:30.415Z,29.10
2019-06-20T04:57:30.350Z,31.10
2019-06-20T04:58:30.387Z,29.70
2019-06-20T04:59:30.372Z,28.10
2019-06-20T05:00:30.325Z,30.90
2019-06-20T05:01:30.310Z,30.10
2019-06-20T05:02:30.351Z,30.20
2019-06-20T05:03:30.793Z,29.00
2019-06-20T05:04:30.286Z,28.10
2019-06-20T05:05:30.270Z,28.10
2019-06-20T05:06:30.246Z,26.50
2019-06-20T05:07:30.243Z,28.80
2019-06-20T05:08:30.258Z,29.20
2019-06-20T05:09:30.217Z,30.70
2019-06-20T05:10:30.220Z,28.10
2019-06-20T05:11:30.190Z,30.70
2019-06-20T05:12:30.188Z,27.80
2019-06-20T05:13:30.367Z,28.60
2019-06-20T05:14:30.217Z,30.60
2019-06-20T05:15:30.142Z,30.00
2019-06-20T05:16:30.266Z,28.60
2019-06-20T05:17:30.119Z,29.80
2019-06-20T05:18:30.118Z,28.90
2019-06-20T05:19:30.135Z,29.80
2019-06-20T05:20:30.081Z,28.10
2019-06-20T05:21:30.226Z,29.00
2019-06-20T05:22:30.055Z,29.80
2019-06-20T05:23:30.064Z,30.70
2019-06-20T05:24:30.105Z,28.60
2019-06-20T05:25:30.069Z,155.00
2019-06-20T05:26:30.069Z,153.50
2019-06-20T05:27:30.024Z,44.20
2019-06-20T05:28:30.017Z,39.00
2019-06-20T05:29:30.035Z,31.10
2019-06-20T05:30:30.124Z,31.30
2019-06-20T05:31:29.961Z,30.40
2019-06-20T05:32:29.938Z,29.10
2019-06-20T05:33:29.940Z,30.00
2019-06-20T05:34:29.911Z,29.80
2019-06-20T05:35:30.025Z,28.50
2019-06-20T05:36:29.894Z,27.40
2019-06-20T05:37:29.883Z,30.80
2019-06-20T05:38:29.896Z,28.80
2019-06-20T05:39:29.882Z,35.40
2019-06-20T05:40:30.026Z,29.80
2019-06-20T05:41:29.902Z,28.80
2019-06-20T05:42:29.837Z,29.70
2019-06-20T05:43:29.905Z,27.10
2019-06-20T05:44:29.807Z,29.70
2019-06-20T05:45:29.796Z,27.90
2019-06-20T05:46:29.799Z,28.50
2019-06-20T05:47:29.787Z,30.00
2019-06-20T05:48:29.848Z,31.60
2019-06-20T05:49:29.757Z,28.90
2019-06-20T05:50:29.736Z,30.70
2019-06-20T05:51:29.745Z,30.10
2019-06-20T05:52:29.785Z,27.30
2019-06-20T05:53:29.696Z,26.90
2019-06-20T05:54:29.762Z,28.60
2019-06-20T05:55:29.701Z,29.50
2019-06-20T05:56:29.672Z,29.20
2019-06-20T05:57:29.654Z,27.90
2019-06-20T05:58:29.764Z,29.00
2019-06-20T05:59:30.568Z,28.50
2019-06-20T06:00:29.621Z,29.30
2019-06-20T06:01:29.702Z,29.70
2019-06-20T06:02:29.595Z,28.70
2019-06-20T06:03:30.554Z,27.70
2019-06-20T06:04:29.703Z,28.70
2019-06-20T06:05:29.559Z,29.40
2019-06-20T06:06:30.004Z,29.60
2019-06-20T06:07:29.683Z,29.50
2019-06-20T06:08:29.548Z,32.00
2019-06-20T06:09:29.614Z,27.80
2019-06-20T06:10:29.665Z,28.30
2019-06-20T06:11:29.568Z,29.50
2019-06-20T06:12:29.567Z,91.60
2019-06-20T06:13:29.497Z,103.60
2019-06-20T06:14:29.460Z,64.40
2019-06-20T06:15:29.483Z,56.60
2019-06-20T06:16:29.432Z,32.80
2019-06-20T06:17:29.436Z,29.60
2019-06-20T06:18:29.492Z,27.50
2019-06-20T06:19:29.487Z,27.50
2019-06-20T06:20:29.383Z,28.40
2019-06-20T06:21:29.447Z,27.00
2019-06-20T06:22:29.374Z,25.60
2019-06-20T06:23:30.088Z,27.90
2019-06-20T06:24:29.343Z,29.40
2019-06-20T06:25:29.348Z,29.00
2019-06-20T06:26:30.061Z,27.60
2019-06-20T06:27:29.302Z,27.40
2019-06-20T06:28:29.318Z,26.00
2019-06-20T06:29:29.308Z,26.90
2019-06-20T06:30:29.346Z,30.30
2019-06-20T06:31:29.269Z,27.40
2019-06-20T06:32:39.669Z,27.20
2019-06-20T06:33:30.251Z,27.30
2019-06-20T06:34:29.248Z,27.30
2019-06-20T06:35:29.278Z,24.80
2019-06-20T06:36:29.211Z,31.10
2019-06-20T06:37:29.186Z,27.40
2019-06-20T06:38:29.175Z,25.60
2019-06-20T06:39:29.186Z,25.20
2019-06-20T06:40:30.138Z,24.20
2019-06-20T06:41:29.171Z,27.30
2019-06-20T06:42:29.261Z,27.00
2019-06-20T06:43:29.151Z,25.70
2019-06-20T06:44:31.695Z,27.60
2019-06-20T06:45:29.150Z,26.10
2019-06-20T06:46:42.920Z,23.80
2019-06-20T06:47:30.078Z,25.90
2019-06-20T06:48:29.061Z,24.00
2019-06-20T06:49:29.048Z,23.00
2019-06-20T06:50:29.154Z,22.50
2019-06-20T06:51:29.057Z,23.90
2019-06-20T06:52:29.051Z,21.30
2019-06-20T06:53:29.112Z,25.30
2019-06-20T06:54:28.998Z,21.20
2019-06-20T06:55:29.005Z,22.60
2019-06-20T06:56:28.978Z,23.40
2019-06-20T06:57:28.966Z,21.80
2019-06-20T06:58:28.966Z,22.10
2019-06-20T06:59:28.948Z,23.40
2019-06-20T07:00:28.967Z,20.70
2019-06-20T07:01:28.919Z,20.20
2019-06-20T07:02:29.005Z,22.60
2019-06-20T07:03:28.917Z,18.00
2019-06-20T07:04:28.887Z,19.00
2019-06-20T07:05:28.892Z,19.60
2019-06-20T07:06:28.899Z,20.10
2019-06-20T07:07:28.855Z,21.80
2019-06-20T07:08:28.903Z,17.90
2019-06-20T07:09:29.060Z,49.30
2019-06-20T07:10:28.830Z,61.90
2019-06-20T07:11:28.849Z,39.00
2019-06-20T07:12:28.814Z,36.20
2019-06-20T07:13:28.804Z,21.90
2019-06-20T07:14:28.778Z,17.20
2019-06-20T07:15:28.781Z,16.50
2019-06-20T07:16:28.802Z,17.70
2019-06-20T07:17:28.736Z,17.40
2019-06-20T07:18:28.748Z,18.50
2019-06-20T07:19:28.766Z,17.30
2019-06-20T07:20:28.711Z,18.00
2019-06-20T07:21:28.695Z,18.10
2019-06-20T07:22:28.686Z,17.60
2019-06-20T07:23:28.678Z,18.60
2019-06-20T07:24:28.668Z,17.00
2019-06-20T07:25:28.841Z,16.50
2019-06-20T07:26:28.689Z,17.50
2019-06-20T07:27:28.637Z,17.70
2019-06-20T07:28:28.709Z,18.80
2019-06-20T07:29:28.607Z,15.40
2019-06-20T07:30:28.628Z,17.20
2019-06-20T07:31:28.596Z,16.70
2019-06-20T07:32:28.574Z,16.30
2019-06-20T07:33:28.702Z,16.90
2019-06-20T07:34:28.552Z,16.80
2019-06-20T07:35:28.548Z,16.90
2019-06-20T07:36:28.581Z,19.70
2019-06-20T07:37:28.587Z,27.90
2019-06-20T07:38:28.540Z,19.60
2019-06-20T07:39:28.503Z,90.40
2019-06-20T07:40:28.520Z,70.90
2019-06-20T07:41:28.474Z,32.70
2019-06-20T07:42:28.462Z,20.50
2019-06-20T07:43:28.494Z,17.50
2019-06-20T07:44:28.452Z,18.10
2019-06-20T07:45:28.445Z,19.50
2019-06-20T07:46:28.480Z,20.30
2019-06-20T07:47:28.402Z,17.00
2019-06-20T07:48:28.479Z,20.10
2019-06-20T07:49:28.445Z,19.30
2019-06-20T07:50:28.374Z,21.00
2019-06-20T07:51:28.399Z,16.30
2019-06-20T07:52:28.351Z,19.20
2019-06-20T07:53:28.378Z,17.70
2019-06-20T07:54:28.382Z,17.80
2019-06-20T07:55:28.511Z,14.70
2019-06-20T07:56:28.314Z,14.50
2019-06-20T07:57:28.299Z,15.20
2019-06-20T07:58:28.292Z,12.60
2019-06-20T07:59:28.345Z,14.00
2019-06-20T08:00:28.358Z,13.20
2019-06-20T08:01:28.249Z,14.50
2019-06-20T08:02:28.367Z,12.50
2019-06-20T08:03:28.254Z,33.10
2019-06-20T08:04:28.241Z,21.90
2019-06-20T08:05:28.310Z,94.70
2019-06-20T08:06:28.202Z,22.00
2019-06-20T08:07:28.184Z,13.80
2019-06-20T08:08:28.179Z,12.00
2019-06-20T08:09:43.944Z,13.60
2019-06-20T08:10:29.323Z,12.90
2019-06-20T08:11:28.138Z,12.10
2019-06-20T08:12:28.128Z,12.80
2019-06-20T08:13:28.123Z,12.20
2019-06-20T08:14:28.104Z,11.80
2019-06-20T08:15:28.125Z,12.00
2019-06-20T08:16:28.096Z,10.70
2019-06-20T08:17:35.170Z,11.80
2019-06-20T08:18:29.053Z,11.60
2019-06-20T08:19:28.066Z,11.90
2019-06-20T08:20:28.040Z,11.50
2019-06-20T08:21:28.083Z,11.30
2019-06-20T08:22:28.011Z,11.20
2019-06-20T08:23:28.011Z,12.20
2019-06-20T08:24:27.989Z,12.40
2019-06-20T08:25:28.007Z,12.90
2019-06-20T08:26:28.111Z,11.00
2019-06-20T08:27:27.962Z,13.40
2019-06-20T08:28:28.001Z,11.60
2019-06-20T08:29:27.949Z,11.40
2019-06-20T08:30:27.960Z,11.60
2019-06-20T08:31:27.928Z,10.30
2019-06-20T08:32:27.920Z,10.80
2019-06-20T08:33:27.930Z,12.30
2019-06-20T08:34:27.905Z,12.00
2019-06-20T08:35:27.867Z,11.80
2019-06-20T08:36:27.859Z,12.70
2019-06-20T08:37:27.850Z,12.20
2019-06-20T08:38:27.891Z,21.70
2019-06-20T08:39:29.360Z,44.00
2019-06-20T08:40:27.813Z,13.20
2019-06-20T08:41:27.802Z,13.00
2019-06-20T08:42:27.986Z,10.50
2019-06-20T08:43:27.788Z,11.80
2019-06-20T08:44:27.825Z,11.90
2019-06-20T08:45:27.861Z,22.00
2019-06-20T08:46:27.752Z,12.80
2019-06-20T08:47:27.750Z,9.80
2019-06-20T08:48:27.922Z,9.80
2019-06-20T08:49:27.736Z,8.50
2019-06-20T08:50:27.778Z,9.40
2019-06-20T08:51:27.702Z,9.10
2019-06-20T08:52:28.619Z,9.10
2019-06-20T08:53:27.704Z,8.90
2019-06-20T08:54:27.755Z,8.80
2019-06-20T08:55:27.706Z,9.10
2019-06-20T08:56:27.665Z,9.50
2019-06-20T08:57:27.635Z,9.40
2019-06-20T08:58:27.638Z,10.90
2019-06-20T08:59:27.600Z,10.10
2019-06-20T09:00:27.590Z,10.50
2019-06-20T09:01:27.751Z,9.40
2019-06-20T09:02:27.568Z,9.30
2019-06-20T09:03:27.561Z,9.60
2019-06-20T09:04:27.573Z,10.40
2019-06-20T09:05:30.419Z,10.20
2019-06-20T09:06:27.536Z,12.30
2019-06-20T09:07:27.544Z,11.30
2019-06-20T09:08:27.515Z,12.40
2019-06-20T09:09:27.574Z,12.60
2019-06-20T09:10:27.481Z,10.70
2019-06-20T09:11:27.504Z,10.80
2019-06-20T09:12:27.560Z,10.80
2019-06-20T09:13:27.465Z,19.70
2019-06-20T09:14:27.472Z,17.00
2019-06-20T09:15:27.433Z,26.40
2019-06-20T09:16:27.420Z,19.80
2019-06-20T09:17:27.407Z,11.00
2019-06-20T09:18:27.393Z,8.90
2019-06-20T09:19:27.379Z,9.50
2019-06-20T09:20:27.394Z,8.90
2019-06-20T09:21:27.376Z,10.20
2019-06-20T09:22:27.490Z,9.10
2019-06-20T09:23:27.335Z,7.90
2019-06-20T09:24:27.325Z,9.40
2019-06-20T09:25:27.383Z,9.60
2019-06-20T09:26:27.337Z,8.40
2019-06-20T09:27:27.295Z,7.20
2019-06-20T09:28:27.287Z,7.00
2019-06-20T09:29:40.891Z,8.10
2019-06-20T09:30:28.459Z,7.00
2019-06-20T09:31:27.255Z,5.90
2019-06-20T09:32:27.269Z,5.50
2019-06-20T09:33:27.253Z,7.60
2019-06-20T09:34:27.208Z,7.20
2019-06-20T09:35:27.193Z,7.10
2019-06-20T09:36:27.247Z,6.10
2019-06-20T09:37:27.175Z,5.80
2019-06-20T09:38:27.208Z,7.70
2019-06-20T09:39:27.153Z,7.10
2019-06-20T09:40:27.162Z,6.70
2019-06-20T09:41:27.277Z,6.00
2019-06-20T09:42:27.129Z,6.80
2019-06-20T09:43:28.088Z,7.00
2019-06-20T09:44:27.114Z,8.50
2019-06-20T09:45:27.104Z,6.90
2019-06-20T09:46:27.084Z,8.30
2019-06-20T09:47:27.081Z,8.00
2019-06-20T09:48:27.092Z,7.60
2019-06-20T09:49:27.071Z,8.20
2019-06-20T09:50:27.038Z,7.70
2019-06-20T09:51:27.021Z,8.00
2019-06-20T09:52:27.021Z,7.60
2019-06-20T09:53:27.016Z,8.00
2019-06-20T09:54:27.068Z,8.70
2019-06-20T09:55:26.984Z,7.40
2019-06-20T09:56:26.979Z,6.50
2019-06-20T09:57:27.118Z,7.20
2019-06-20T09:58:26.933Z,8.90
2019-06-20T09:59:28.002Z,7.00
2019-06-20T10:00:26.961Z,8.00
2019-06-20T10:01:26.914Z,6.30
2019-06-20T10:02:26.901Z,6.00
2019-06-20T10:03:26.894Z,5.40
2019-06-20T10:04:26.882Z,6.60
2019-06-20T10:05:27.063Z,6.90
2019-06-20T10:06:26.871Z,6.50
2019-06-20T10:07:26.850Z,6.10
2019-06-20T10:08:26.841Z,7.70
2019-06-20T10:09:26.824Z,6.30
2019-06-20T10:10:26.835Z,6.30
2019-06-20T10:11:26.819Z,7.00
2019-06-20T10:12:26.790Z,6.20
2019-06-20T10:13:26.891Z,6.50
2019-06-20T10:14:27.005Z,7.50
2019-06-20T10:15:26.772Z,7.60
2019-06-20T10:16:26.740Z,6.40
2019-06-20T10:17:26.769Z,7.60
2019-06-20T10:18:26.754Z,6.60
2019-06-20T10:19:26.727Z,5.90
2019-06-20T10:20:26.708Z,7.20
2019-06-20T10:21:26.764Z,6.70
2019-06-20T10:22:26.674Z,6.10
2019-06-20T10:23:26.685Z,5.90
2019-06-20T10:24:27.637Z,7.20
2019-06-20T10:25:26.640Z,6.90
2019-06-20T10:26:26.633Z,5.90
2019-06-20T10:27:26.710Z,5.50
2019-06-20T10:28:26.621Z,7.10
2019-06-20T10:29:26.623Z,6.00
2019-06-20T10:30:26.597Z,7.20
2019-06-20T10:31:26.595Z,6.20
2019-06-20T10:32:26.575Z,6.70
2019-06-20T10:33:26.560Z,7.30
2019-06-20T10:34:26.541Z,7.60
2019-06-20T10:35:26.528Z,8.50
2019-06-20T10:36:26.556Z,7.40
2019-06-20T10:37:26.559Z,7.00
2019-06-20T10:38:26.526Z,6.60
2019-06-20T10:39:26.498Z,6.20
2019-06-20T10:40:26.715Z,8.60
2019-06-20T10:41:26.464Z,11.60
2019-06-20T10:42:26.482Z,7.10
2019-06-20T10:43:26.459Z,7.80
2019-06-20T10:44:26.433Z,7.60
2019-06-20T10:45:26.423Z,6.90
2019-06-20T10:46:26.427Z,6.70
2019-06-20T10:47:33.640Z,5.90
2019-06-20T10:48:27.404Z,7.40
2019-06-20T10:49:26.375Z,6.50
2019-06-20T10:50:26.410Z,7.40
2019-06-20T10:51:26.436Z,7.30
2019-06-20T10:52:26.359Z,6.20
2019-06-20T10:53:26.363Z,7.90
2019-06-20T10:54:26.361Z,6.80
2019-06-20T10:55:27.146Z,6.20
2019-06-20T10:56:26.300Z,6.10
2019-06-20T10:57:26.318Z,6.50
2019-06-20T10:58:26.306Z,6.60
2019-06-20T10:59:26.343Z,7.40
2019-06-20T11:00:31.237Z,9.90
2019-06-20T11:01:27.331Z,6.70
2019-06-20T11:02:26.253Z,6.60
2019-06-20T11:03:26.221Z,6.60
2019-06-20T11:04:26.286Z,6.30
2019-06-20T11:05:26.227Z,6.40
2019-06-20T11:06:26.202Z,7.70
2019-06-20T11:07:26.247Z,6.80
2019-06-20T11:08:26.190Z,7.00
2019-06-20T11:09:26.155Z,7.70
2019-06-20T11:10:26.175Z,7.10
2019-06-20T11:11:26.175Z,7.40
2019-06-20T11:12:26.125Z,6.70
2019-06-20T11:13:26.124Z,7.40
2019-06-20T11:14:26.102Z,7.40
2019-06-20T11:15:26.140Z,7.10
2019-06-20T11:16:26.098Z,6.80
2019-06-20T11:17:26.102Z,7.80
2019-06-20T11:18:26.067Z,7.40
2019-06-20T11:19:26.044Z,7.30
2019-06-20T11:20:26.144Z,7.40
2019-06-20T11:21:26.653Z,7.30
2019-06-20T11:22:26.032Z,6.30
2019-06-20T11:23:26.068Z,7.00
2019-06-20T11:24:26.012Z,6.00
2019-06-20T11:25:25.996Z,7.00
2019-06-20T11:26:25.987Z,7.00
2019-06-20T11:27:25.967Z,7.00
2019-06-20T11:28:25.980Z,7.20
2019-06-20T11:29:25.945Z,6.50
2019-06-20T11:30:25.957Z,7.10
2019-06-20T11:31:25.968Z,8.30
2019-06-20T11:32:25.908Z,7.10
2019-06-20T11:33:25.934Z,7.90
2019-06-20T11:34:25.965Z,8.90
2019-06-20T11:35:25.934Z,6.60
2019-06-20T11:36:25.862Z,7.20
2019-06-20T11:37:25.880Z,6.90
2019-06-20T11:38:25.843Z,8.50
2019-06-20T11:39:25.922Z,7.20
2019-06-20T11:40:25.813Z,7.30
2019-06-20T11:41:25.810Z,7.80
2019-06-20T11:42:25.806Z,6.70
2019-06-20T11:43:25.793Z,6.70
2019-06-20T11:44:25.770Z,8.30
2019-06-20T11:45:25.795Z,7.90
2019-06-20T11:46:25.843Z,6.80
2019-06-20T11:47:25.813Z,7.30
2019-06-20T11:48:25.742Z,8.40
2019-06-20T11:49:25.707Z,9.00
2019-06-20T11:50:25.765Z,8.50
2019-06-20T11:51:25.692Z,9.50
2019-06-20T11:52:25.754Z,10.80
2019-06-20T11:53:25.693Z,8.50
2019-06-20T11:54:25.649Z,8.60
2019-06-20T11:55:25.664Z,9.90
2019-06-20T11:56:25.647Z,9.50
2019-06-20T11:57:25.683Z,9.70
2019-06-20T11:58:25.669Z,8.70
2019-06-20T11:59:25.607Z,9.80
2019-06-20T12:00:25.597Z,9.00
2019-06-20T12:01:32.831Z,10.20
2019-06-20T12:02:26.583Z,8.70
2019-06-20T12:03:25.764Z,8.10
2019-06-20T12:04:25.559Z,8.80
2019-06-20T12:05:25.533Z,8.90
2019-06-20T12:06:25.618Z,9.50
2019-06-20T12:07:25.513Z,10.60
2019-06-20T12:08:25.549Z,11.00
2019-06-20T12:09:25.501Z,10.30
2019-06-20T12:10:25.484Z,10.30
2019-06-20T12:11:25.463Z,10.40
2019-06-20T12:12:25.481Z,12.90
2019-06-20T12:13:25.462Z,11.00
2019-06-20T12:14:25.479Z,11.20
2019-06-20T12:15:25.480Z,11.60
2019-06-20T12:16:25.408Z,9.30
2019-06-20T12:17:25.413Z,11.70
2019-06-20T12:18:25.391Z,10.80
2019-06-20T12:19:25.556Z,10.30
2019-06-20T12:20:25.439Z,11.20
2019-06-20T12:21:25.372Z,13.00
2019-06-20T12:22:25.345Z,10.90
2019-06-20T12:23:25.346Z,10.90
2019-06-20T12:24:25.390Z,12.80
2019-06-20T12:25:25.351Z,9.90
2019-06-20T12:26:25.300Z,10.30
2019-06-20T12:27:25.393Z,10.80
2019-06-20T12:28:25.404Z,11.40
2019-06-20T12:29:25.345Z,11.40
2019-06-20T12:30:25.275Z,9.50
2019-06-20T12:31:25.243Z,9.00
2019-06-20T12:32:25.262Z,8.60
2019-06-20T12:33:25.257Z,8.60
2019-06-20T12:34:25.243Z,8.00
2019-06-20T12:35:25.216Z,7.70
2019-06-20T12:36:25.284Z,9.60
2019-06-20T12:37:25.170Z,10.40
2019-06-20T12:38:25.198Z,11.10
2019-06-20T12:39:25.179Z,9.70
2019-06-20T12:40:25.199Z,8.80
2019-06-20T12:41:25.135Z,9.50
2019-06-20T12:42:25.140Z,9.30
2019-06-20T12:43:26.186Z,10.80
2019-06-20T12:44:25.144Z,10.30
2019-06-20T12:45:25.159Z,11.30
2019-06-20T12:46:25.234Z,10.60
2019-06-20T12:47:25.061Z,9.80
2019-06-20T12:48:25.079Z,8.30
2019-06-20T12:49:25.142Z,9.10
2019-06-20T12:50:25.052Z,8.50
2019-06-20T12:51:25.046Z,7.70
2019-06-20T12:52:25.022Z,6.80
2019-06-20T12:53:25.026Z,7.80
2019-06-20T12:54:24.999Z,7.60
2019-06-20T12:55:25.073Z,6.60
2019-06-20T12:56:25.013Z,6.40
2019-06-20T12:57:24.951Z,9.00
2019-06-20T12:58:24.936Z,7.20
2019-06-20T12:59:24.937Z,7.90
2019-06-20T13:00:24.942Z,9.70
2019-06-20T13:01:35.562Z,10.20
2019-06-20T13:02:25.916Z,8.10
2019-06-20T13:03:24.947Z,8.80